createdAt,value
2023-01-12T00:01:34.182Z,94668.31
2023-01-12T00:04:03.056Z,94671.91
2023-01-12T00:06:32.232Z,94679.25
2023-01-12T00:08:59.711Z,94665.47
2023-01-12T00:11:26.362Z,94671.00
2023-01-12T00:13:53.008Z,94676.22
2023-01-12T00:16:35.278Z,94669.44
2023-01-12T00:19:21.620Z,94674.97
2023-01-12T00:21:58.960Z,94653.41
2023-01-12T00:24:31.425Z,94641.38
2023-01-12T00:26:59.815Z,94644.50
2023-01-12T00:29:27.593Z,94647.44
2023-01-12T00:31:56.239Z,94639.78
2023-01-12T00:34:23.915Z,94637.06
2023-01-12T00:36:51.144Z,94632.44
2023-01-12T00:39:18.043Z,94635.72
2023-01-12T00:42:03.724Z,94639.09
2023-01-12T00:44:49.535Z,94636.72
2023-01-12T00:47:17.891Z,94635.38
2023-01-12T00:49:45.271Z,94635.03
2023-01-12T00:52:25.002Z,94634.94
2023-01-12T00:54:56.399Z,94637.53
2023-01-12T00:57:23.004Z,94626.72
2023-01-12T00:59:49.618Z,94632.13
2023-01-12T01:02:16.431Z,94633.34
2023-01-12T01:04:43.179Z,94633.59
2023-01-12T01:07:10.072Z,94641.47
2023-01-12T01:09:36.694Z,94639.22
2023-01-12T01:12:03.458Z,94644.75
2023-01-12T01:14:30.164Z,94640.56
2023-01-12T01:16:56.866Z,94648.69
2023-01-12T01:19:23.815Z,94636.50
2023-01-12T01:21:50.491Z,94641.09
2023-01-12T01:24:17.225Z,94634.19
2023-01-12T01:26:43.926Z,94626.63
2023-01-12T01:29:11.009Z,94630.22
2023-01-12T01:31:37.813Z,94634.03
2023-01-12T01:34:04.491Z,94634.84
2023-01-12T01:36:31.377Z,94630.91
2023-01-12T01:38:58.408Z,94633.16
2023-01-12T01:41:29.028Z,94637.00
2023-01-12T01:43:59.657Z,94643.53
2023-01-12T01:46:29.312Z,94637.25
2023-01-12T01:48:57.429Z,94636.56
2023-01-12T01:51:24.074Z,94640.28
2023-01-12T01:53:51.009Z,94651.09
2023-01-12T01:56:27.713Z,94652.59
2023-01-12T01:59:03.264Z,94647.72
2023-01-12T02:01:30.130Z,94654.22
2023-01-12T02:03:57.776Z,94651.72
2023-01-12T02:06:26.203Z,94653.09
2023-01-12T02:09:15.232Z,94652.47
2023-01-12T02:12:01.570Z,94661.59
2023-01-12T02:14:46.687Z,94654.72
2023-01-12T02:17:21.676Z,94654.66
2023-01-12T02:20:19.842Z,94663.41
2023-01-12T02:23:05.238Z,94647.00
2023-01-12T02:26:06.933Z,94649.03
2023-01-12T02:29:09.356Z,94639.13
2023-01-12T02:32:02.687Z,94624.34
2023-01-12T02:34:56.370Z,94618.22
2023-01-12T02:37:33.947Z,94597.19
2023-01-12T02:40:24.135Z,94607.38
2023-01-12T02:43:12.177Z,94591.94
2023-01-12T02:45:57.417Z,94606.97
2023-01-12T02:48:46.000Z,94588.78
2023-01-12T02:51:25.258Z,94582.81
2023-01-12T02:53:55.632Z,94591.84
2023-01-12T02:56:31.621Z,94598.31
2023-01-12T02:59:02.538Z,94594.81
2023-01-12T03:01:30.935Z,94599.38
2023-01-12T03:04:02.774Z,94605.75
2023-01-12T03:07:06.581Z,94609.16
2023-01-12T03:09:36.247Z,94589.22
2023-01-12T03:12:14.579Z,94592.13
2023-01-12T03:14:47.983Z,94587.03
2023-01-12T03:17:35.821Z,94574.03
2023-01-12T03:20:26.697Z,94579.53
2023-01-12T03:23:01.356Z,94594.41
2023-01-12T03:25:31.199Z,94573.94
2023-01-12T03:28:01.756Z,94592.81
2023-01-12T03:31:00.913Z,94570.78
2023-01-12T03:33:27.753Z,94578.31
2023-01-12T03:36:05.824Z,94575.16
2023-01-12T03:39:13.983Z,94576.47
2023-01-12T03:42:09.838Z,94572.78
2023-01-12T03:45:00.855Z,94574.56
2023-01-12T03:47:30.833Z,94572.97
2023-01-12T03:50:15.523Z,94579.53
2023-01-12T03:52:44.930Z,94588.97
2023-01-12T03:55:16.875Z,94598.69
2023-01-12T03:57:44.663Z,94597.19
2023-01-12T04:00:13.104Z,94604.72
2023-01-12T04:02:42.625Z,94608.91
2023-01-12T04:05:10.284Z,94603.16
2023-01-12T04:07:36.935Z,94603.84
2023-01-12T04:10:03.772Z,94611.03
2023-01-12T04:12:30.435Z,94601.75
2023-01-12T04:14:57.057Z,94593.78
2023-01-12T04:17:25.359Z,94590.38
2023-01-12T04:19:52.430Z,94596.06
2023-01-12T04:22:38.163Z,94583.03
2023-01-12T04:25:06.275Z,94583.28
2023-01-12T04:27:33.777Z,94582.50
2023-01-12T04:30:00.459Z,94576.47
2023-01-12T04:32:27.117Z,94582.22
2023-01-12T04:34:55.893Z,94583.47
2023-01-12T04:37:22.627Z,94576.56
2023-01-12T04:39:49.305Z,94568.84
2023-01-12T04:42:34.588Z,94572.63
2023-01-12T04:45:01.277Z,94568.59
2023-01-12T04:47:27.964Z,94553.38
2023-01-12T04:49:54.555Z,94547.34
2023-01-12T04:52:21.202Z,94549.78
2023-01-12T04:54:47.820Z,94553.97
2023-01-12T04:57:14.485Z,94548.47
2023-01-12T04:59:41.095Z,94556.59
2023-01-12T05:02:07.758Z,94557.66
2023-01-12T05:04:34.518Z,94546.72
2023-01-12T05:07:01.271Z,94544.72
2023-01-12T05:09:46.378Z,94549.53
2023-01-12T05:12:13.144Z,94553.53
2023-01-12T05:14:44.476Z,94561.84
2023-01-12T05:17:13.966Z,94565.88
2023-01-12T05:19:40.611Z,94550.97
2023-01-12T05:22:07.509Z,94550.66
2023-01-12T05:24:34.199Z,94551.44
2023-01-12T05:27:01.273Z,94525.72
2023-01-12T05:29:28.496Z,94546.19
2023-01-12T05:31:55.110Z,94546.00
2023-01-12T05:34:21.812Z,94551.16
2023-01-12T05:36:48.725Z,94546.16
2023-01-12T05:39:15.737Z,94548.09
2023-01-12T05:42:02.386Z,94548.34
2023-01-12T05:44:29.057Z,94537.78
2023-01-12T05:46:58.815Z,94545.38
2023-01-12T05:49:25.537Z,94544.34
2023-01-12T05:51:52.175Z,94541.53
2023-01-12T05:54:18.854Z,94533.31
2023-01-12T05:56:45.502Z,94539.38
2023-01-12T05:59:14.371Z,94532.88
2023-01-12T06:01:41.164Z,94522.66
2023-01-12T06:04:10.908Z,94525.47
2023-01-12T06:06:37.581Z,94525.22
2023-01-12T06:09:04.700Z,94525.66
2023-01-12T06:11:49.871Z,94526.44
2023-01-12T06:14:16.766Z,94535.09
2023-01-12T06:16:43.940Z,94534.66
2023-01-12T06:19:12.758Z,94530.53
2023-01-12T06:21:40.413Z,94534.47
2023-01-12T06:24:07.601Z,94514.63
2023-01-12T06:26:34.257Z,94498.72
2023-01-12T06:29:01.113Z,94499.78
2023-01-12T06:31:27.803Z,94499.69
2023-01-12T06:33:54.562Z,94497.91
2023-01-12T06:36:21.379Z,94491.28
2023-01-12T06:38:48.057Z,94494.06
2023-01-12T06:41:33.366Z,94490.31
2023-01-12T06:44:00.375Z,94506.13
2023-01-12T06:46:27.760Z,94486.38
2023-01-12T06:48:58.374Z,94485.88
2023-01-12T06:51:25.118Z,94474.63
2023-01-12T06:53:51.930Z,94470.72
2023-01-12T06:56:18.520Z,94482.63
2023-01-12T06:58:45.445Z,94466.75
2023-01-12T07:01:13.771Z,94494.03
2023-01-12T07:03:42.884Z,94479.16
2023-01-12T07:06:09.553Z,94487.69
2023-01-12T07:08:36.613Z,94500.03
2023-01-12T07:11:05.092Z,94489.50
2023-01-12T07:13:32.009Z,94494.94
2023-01-12T07:16:00.068Z,94472.09
2023-01-12T07:18:28.030Z,94482.88
2023-01-12T07:20:54.631Z,94475.88
2023-01-12T07:23:21.302Z,94467.16
2023-01-12T07:25:47.944Z,94461.81
2023-01-12T07:28:15.013Z,94468.47
2023-01-12T07:30:41.852Z,94469.88
2023-01-12T07:33:10.816Z,94455.19
2023-01-12T07:35:37.444Z,94460.69
2023-01-12T07:38:04.505Z,94466.50
2023-01-12T07:40:31.141Z,94472.53
2023-01-12T07:42:59.354Z,94475.16
2023-01-12T07:45:26.333Z,94474.53
2023-01-12T07:47:54.920Z,94462.88
2023-01-12T07:50:23.037Z,94460.22
2023-01-12T07:52:49.824Z,94457.94
2023-01-12T07:55:18.968Z,94468.50
2023-01-12T07:57:56.802Z,94465.19
2023-01-12T08:00:25.054Z,94475.28
2023-01-12T08:02:53.652Z,94473.34
2023-01-12T08:05:21.627Z,94480.34
2023-01-12T08:07:48.841Z,94463.34
2023-01-12T08:10:16.130Z,94460.25
2023-01-12T08:12:42.930Z,94471.28
2023-01-12T08:15:12.862Z,94463.16
2023-01-12T08:18:05.760Z,94446.97
2023-01-12T08:20:35.369Z,94489.06
2023-01-12T08:23:13.395Z,94448.53
2023-01-12T08:25:46.215Z,94465.59
2023-01-12T08:28:19.286Z,94469.19
2023-01-12T08:30:48.800Z,94466.03
2023-01-12T08:33:16.283Z,94476.88
2023-01-12T08:35:46.437Z,94466.59
2023-01-12T08:38:13.641Z,94476.25
2023-01-12T08:40:58.767Z,94470.06
2023-01-12T08:43:43.962Z,94470.94
2023-01-12T08:46:10.879Z,94479.88
2023-01-12T08:48:38.448Z,94479.56
2023-01-12T08:51:07.875Z,94474.06
2023-01-12T08:53:35.433Z,94482.22
2023-01-12T08:56:02.121Z,94483.28
2023-01-12T08:58:28.778Z,94478.78
2023-01-12T09:00:55.671Z,94470.75
2023-01-12T09:03:22.460Z,94492.25
2023-01-12T09:05:49.097Z,94473.00
2023-01-12T09:08:15.772Z,94473.47
2023-01-12T09:10:42.385Z,94478.78
2023-01-12T09:13:10.177Z,94476.50
2023-01-12T09:15:37.954Z,94460.56
2023-01-12T09:18:04.631Z,94470.16
2023-01-12T09:20:31.325Z,94466.06
2023-01-12T09:22:57.999Z,94467.25
2023-01-12T09:25:24.855Z,94477.41
2023-01-12T09:27:51.503Z,94482.53
2023-01-12T09:30:18.654Z,94481.41
2023-01-12T09:32:45.411Z,94496.84
2023-01-12T09:35:12.099Z,94496.44
2023-01-12T09:37:40.496Z,94493.28
2023-01-12T09:40:07.909Z,94513.09
2023-01-12T09:42:58.109Z,94508.97
2023-01-12T09:45:43.823Z,94525.34
2023-01-12T09:48:13.591Z,94521.16
2023-01-12T09:50:48.533Z,94530.91
2023-01-12T09:53:20.788Z,94516.84
2023-01-12T09:55:50.545Z,94531.59
2023-01-12T09:58:37.425Z,94529.25
2023-01-12T10:01:14.637Z,94514.19
2023-01-12T10:03:44.180Z,94510.63
2023-01-12T10:06:17.276Z,94529.38
2023-01-12T10:08:51.868Z,94521.66
2023-01-12T10:11:52.816Z,94531.72
2023-01-12T10:14:28.557Z,94500.34
2023-01-12T10:17:16.952Z,94515.50
2023-01-12T10:19:45.915Z,94497.69
2023-01-12T10:22:37.758Z,94496.00
2023-01-12T10:25:25.921Z,94503.81
2023-01-12T10:27:54.863Z,94504.69
2023-01-12T10:30:29.121Z,94498.66
2023-01-12T10:32:56.115Z,94496.75
2023-01-12T10:35:24.348Z,94507.03
2023-01-12T10:37:56.192Z,94503.88
2023-01-12T10:40:30.359Z,94489.59
2023-01-12T10:43:22.434Z,94477.53
2023-01-12T10:46:12.696Z,94487.03
2023-01-12T10:48:43.272Z,94495.34
2023-01-12T10:51:24.135Z,94465.84
2023-01-12T10:54:00.889Z,94477.72
2023-01-12T10:56:40.845Z,94461.47
2023-01-12T10:59:13.656Z,94451.50
2023-01-12T11:02:02.179Z,94445.94
2023-01-12T11:04:29.964Z,94455.19
2023-01-12T11:07:00.575Z,94449.78
2023-01-12T11:09:30.078Z,94449.03
2023-01-12T11:12:00.149Z,94462.59
2023-01-12T11:14:32.982Z,94447.34
2023-01-12T11:17:13.226Z,94445.84
2023-01-12T11:19:43.205Z,94452.94
2023-01-12T11:22:17.884Z,94461.53
2023-01-12T11:24:53.064Z,94470.88
2023-01-12T11:27:32.373Z,94453.66
2023-01-12T11:30:16.211Z,94474.56
2023-01-12T11:33:15.519Z,94468.47
2023-01-12T11:35:42.139Z,94456.72
2023-01-12T11:38:25.111Z,94447.22
2023-01-12T11:40:53.476Z,94437.16
2023-01-12T11:43:51.401Z,94427.63
2023-01-12T11:46:36.218Z,94436.31
2023-01-12T11:49:12.854Z,94431.50
2023-01-12T11:51:40.376Z,94440.34
2023-01-12T11:54:13.659Z,94433.81
2023-01-12T11:57:14.068Z,94405.34
2023-01-12T11:59:57.935Z,94424.72
2023-01-12T12:02:41.648Z,94421.66
2023-01-12T12:05:20.659Z,94394.66
2023-01-12T12:07:59.496Z,94416.44
2023-01-12T12:10:32.159Z,94408.31
2023-01-12T12:13:23.088Z,94403.97
2023-01-12T12:16:21.349Z,94397.34
2023-01-12T12:18:59.745Z,94398.78
2023-01-12T12:22:01.948Z,94392.63
2023-01-12T12:24:51.732Z,94396.81
2023-01-12T12:27:37.202Z,94396.81
2023-01-12T12:30:40.989Z,94385.88
2023-01-12T12:33:43.660Z,94388.22
2023-01-12T12:36:20.677Z,94375.44
2023-01-12T12:39:31.238Z,94387.13
2023-01-12T12:42:44.503Z,94393.09
2023-01-12T12:45:17.070Z,94393.47
2023-01-12T12:47:56.086Z,94402.72
2023-01-12T12:50:38.569Z,94386.06
2023-01-12T12:53:32.877Z,94390.81
2023-01-12T12:56:04.595Z,94386.47
2023-01-12T12:58:39.923Z,94389.19
2023-01-12T13:01:25.015Z,94374.38
2023-01-12T13:03:53.351Z,94380.56
2023-01-12T13:06:31.347Z,94382.00
2023-01-12T13:09:14.253Z,94377.06
2023-01-12T13:12:00.097Z,94375.13
2023-01-12T13:14:31.108Z,94369.75
2023-01-12T13:17:21.153Z,94369.81
2023-01-12T13:20:08.357Z,94366.31
2023-01-12T13:22:50.491Z,94364.94
2023-01-12T13:25:17.124Z,94360.47
2023-01-12T13:27:47.810Z,94351.16
2023-01-12T13:30:23.790Z,94364.44
2023-01-12T13:33:14.798Z,94358.91
2023-01-12T13:35:44.429Z,94369.03
2023-01-12T13:38:32.978Z,94361.63
2023-01-12T13:41:15.296Z,94363.28
2023-01-12T13:43:49.789Z,94372.56
2023-01-12T13:46:21.135Z,94366.63
2023-01-12T13:48:53.353Z,94379.44
2023-01-12T13:51:28.558Z,94377.47
2023-01-12T13:54:07.329Z,94378.38
2023-01-12T13:56:35.103Z,94367.84
2023-01-12T13:59:04.531Z,94364.66
2023-01-12T14:01:38.506Z,94362.28
2023-01-12T14:04:16.379Z,94367.72
2023-01-12T14:07:22.896Z,94370.81
2023-01-12T14:10:14.650Z,94355.31
2023-01-12T14:13:10.973Z,94358.78
2023-01-12T14:16:01.257Z,94363.47
2023-01-12T14:18:41.217Z,94371.94
2023-01-12T14:21:37.470Z,94356.38
2023-01-12T14:24:20.336Z,94350.97
2023-01-12T14:26:47.151Z,94354.47
2023-01-12T14:29:15.092Z,94347.53
2023-01-12T14:31:48.533Z,94346.38
2023-01-12T14:34:22.454Z,94357.63
2023-01-12T14:36:49.319Z,94360.69
2023-01-12T14:39:24.353Z,94346.34
2023-01-12T14:42:12.228Z,94354.41
2023-01-12T14:45:12.095Z,94353.69
2023-01-12T14:47:39.694Z,94353.34
2023-01-12T14:50:12.329Z,94351.81
2023-01-12T14:52:40.680Z,94340.84
2023-01-12T14:55:36.731Z,94348.28
2023-01-12T14:58:05.394Z,94345.09
2023-01-12T15:00:36.613Z,94334.59
2023-01-12T15:03:17.811Z,94349.81
2023-01-12T15:05:54.785Z,94347.75
2023-01-12T15:08:28.149Z,94335.97
2023-01-12T15:11:37.617Z,94346.06
2023-01-12T15:14:07.089Z,94343.34
2023-01-12T15:16:52.662Z,94339.50
2023-01-12T15:19:37.866Z,94337.19
2023-01-12T15:22:28.692Z,94327.84
2023-01-12T15:25:14.595Z,94334.16
2023-01-12T15:27:41.289Z,94321.25
2023-01-12T15:30:10.741Z,94334.50
2023-01-12T15:32:47.242Z,94336.09
2023-01-12T15:35:26.352Z,94331.44
2023-01-12T15:37:55.375Z,94325.13
2023-01-12T15:40:22.755Z,94341.88
2023-01-12T15:42:53.067Z,94328.66
2023-01-12T15:45:35.113Z,94334.50
2023-01-12T15:48:03.060Z,94334.88
2023-01-12T15:50:31.297Z,94323.94
2023-01-12T15:53:00.459Z,94328.22
2023-01-12T15:55:27.500Z,94336.31
2023-01-12T15:57:55.517Z,94338.25
2023-01-12T16:00:23.971Z,94344.47
2023-01-12T16:02:52.294Z,94339.72
2023-01-12T16:05:22.729Z,94341.09
2023-01-12T16:07:49.753Z,94336.44
2023-01-12T16:10:17.156Z,94342.59
2023-01-12T16:12:44.507Z,94339.81
2023-01-12T16:15:18.661Z,94331.75
2023-01-12T16:17:45.977Z,94330.91
2023-01-12T16:20:13.695Z,94343.75
2023-01-12T16:22:40.459Z,94341.78
2023-01-12T16:25:07.756Z,94336.38
2023-01-12T16:27:36.208Z,94344.03
2023-01-12T16:30:05.899Z,94333.59
2023-01-12T16:32:33.074Z,94337.19
2023-01-12T16:34:59.902Z,94332.94
2023-01-12T16:37:29.955Z,94336.81
2023-01-12T16:39:56.670Z,94341.09
2023-01-12T16:42:23.378Z,94345.78
2023-01-12T16:44:50.346Z,94334.91
2023-01-12T16:47:20.035Z,94332.56
2023-01-12T16:49:51.242Z,94350.84
2023-01-12T16:52:19.755Z,94351.56
2023-01-12T16:54:46.576Z,94339.44
2023-01-12T16:57:15.958Z,94341.41
2023-01-12T16:59:43.276Z,94346.03
2023-01-12T17:02:17.369Z,94336.78
2023-01-12T17:04:45.891Z,94333.66
2023-01-12T17:07:13.016Z,94319.66
2023-01-12T17:09:40.566Z,94329.03
2023-01-12T17:12:07.855Z,94318.91
2023-01-12T17:14:36.002Z,94324.78
2023-01-12T17:17:07.342Z,94322.81
2023-01-12T17:19:35.950Z,94315.81
2023-01-12T17:22:04.574Z,94324.34
2023-01-12T17:24:33.377Z,94312.38
2023-01-12T17:27:00.675Z,94317.81
2023-01-12T17:29:28.589Z,94308.84
2023-01-12T17:32:03.341Z,94306.13
2023-01-12T17:34:31.972Z,94289.00
2023-01-12T17:37:03.014Z,94298.69
2023-01-12T17:39:30.848Z,94302.16
2023-01-12T17:42:16.118Z,94301.06
2023-01-12T17:44:43.050Z,94290.13
2023-01-12T17:47:10.964Z,94295.16
2023-01-12T17:49:37.871Z,94280.44
2023-01-12T17:52:05.400Z,94277.34
2023-01-12T17:54:32.286Z,94271.09
2023-01-12T17:56:59.046Z,94285.13
2023-01-12T17:59:25.908Z,94273.44
2023-01-12T18:01:55.319Z,94273.41
2023-01-12T18:04:22.362Z,94270.72
2023-01-12T18:06:49.573Z,94274.31
2023-01-12T18:09:16.579Z,94266.56
2023-01-12T18:11:43.358Z,94283.25
2023-01-12T18:14:10.520Z,94286.78
2023-01-12T18:16:37.373Z,94271.50
2023-01-12T18:19:06.934Z,94277.81
2023-01-12T18:21:34.823Z,94273.16
2023-01-12T18:24:02.213Z,94265.78
2023-01-12T18:26:35.641Z,94260.31
2023-01-12T18:29:05.112Z,94278.22
2023-01-12T18:31:37.165Z,94279.44
2023-01-12T18:34:05.392Z,94274.72
2023-01-12T18:36:34.694Z,94260.72
2023-01-12T18:39:01.723Z,94248.31
2023-01-12T18:41:47.079Z,94242.09
2023-01-12T18:44:13.864Z,94238.13
2023-01-12T18:47:01.378Z,94237.38
2023-01-12T18:49:31.310Z,94252.94
2023-01-12T18:52:16.974Z,94248.28
2023-01-12T18:54:45.220Z,94233.50
2023-01-12T18:57:14.169Z,94241.66
2023-01-12T18:59:42.059Z,94255.97
2023-01-12T19:02:14.377Z,94240.13
2023-01-12T19:05:01.325Z,94220.31
2023-01-12T19:07:33.650Z,94240.09
2023-01-12T19:10:00.746Z,94234.25
2023-01-12T19:12:27.769Z,94221.03
2023-01-12T19:15:12.984Z,94222.66
2023-01-12T19:17:42.080Z,94229.66
2023-01-12T19:20:16.032Z,94231.59
2023-01-12T19:23:01.834Z,94213.69
2023-01-12T19:25:47.460Z,94207.88
2023-01-12T19:28:35.119Z,94203.63
2023-01-12T19:31:04.636Z,94214.53
2023-01-12T19:33:31.632Z,94204.72
2023-01-12T19:35:59.182Z,94214.91
2023-01-12T19:38:25.926Z,94202.44
2023-01-12T19:40:54.573Z,94228.09
2023-01-12T19:43:26.218Z,94198.19
2023-01-12T19:45:59.123Z,94199.41
2023-01-12T19:48:26.976Z,94207.16
2023-01-12T19:50:54.237Z,94202.81
2023-01-12T19:53:28.695Z,94190.00
2023-01-12T19:55:55.957Z,94200.19
2023-01-12T19:58:25.144Z,94204.06
2023-01-12T20:00:51.983Z,94193.97
2023-01-12T20:03:21.589Z,94207.16
2023-01-12T20:05:51.971Z,94204.06
2023-01-12T20:08:21.533Z,94195.09
2023-01-12T20:10:57.883Z,94202.94
2023-01-12T20:13:26.621Z,94196.34
2023-01-12T20:15:55.057Z,94187.38
2023-01-12T20:18:21.842Z,94189.72
2023-01-12T20:20:48.595Z,94205.69
2023-01-12T20:23:15.575Z,94206.81
2023-01-12T20:25:43.208Z,94187.75
2023-01-12T20:28:12.243Z,94190.50
2023-01-12T20:30:40.920Z,94173.72
2023-01-12T20:33:08.080Z,94170.25
2023-01-12T20:35:35.384Z,94175.31
2023-01-12T20:38:04.274Z,94174.47
2023-01-12T20:40:31.147Z,94176.47
2023-01-12T20:42:57.908Z,94188.91
2023-01-12T20:45:24.672Z,94190.81
2023-01-12T20:47:51.697Z,94173.00
2023-01-12T20:50:19.115Z,94191.69
2023-01-12T20:52:48.156Z,94173.06
2023-01-12T20:55:15.717Z,94184.72
2023-01-12T20:57:42.415Z,94170.38
2023-01-12T21:00:10.379Z,94183.16
2023-01-12T21:02:37.680Z,94167.63
2023-01-12T21:05:04.905Z,94161.78
2023-01-12T21:07:31.852Z,94166.50
2023-01-12T21:09:58.513Z,94164.53
2023-01-12T21:12:27.534Z,94155.94
2023-01-12T21:14:55.017Z,94151.34
2023-01-12T21:17:21.862Z,94151.34
2023-01-12T21:19:49.696Z,94138.91
2023-01-12T21:22:17.285Z,94145.88
2023-01-12T21:24:45.102Z,94126.41
2023-01-12T21:27:12.257Z,94124.41
2023-01-12T21:29:39.061Z,94129.53
2023-01-12T21:32:08.863Z,94144.31
2023-01-12T21:34:35.838Z,94124.47
2023-01-12T21:37:02.693Z,94106.22
2023-01-12T21:39:29.559Z,94115.09
2023-01-12T21:42:14.915Z,94112.38
2023-01-12T21:44:41.734Z,94103.41
2023-01-12T21:47:08.453Z,94106.13
2023-01-12T21:49:35.355Z,94104.97
2023-01-12T21:52:02.005Z,94103.75
2023-01-12T21:54:28.999Z,94112.75
2023-01-12T21:56:55.677Z,94113.59
2023-01-12T21:59:22.344Z,94137.75
2023-01-12T22:01:49.100Z,94130.75
2023-01-12T22:04:15.891Z,94120.25
2023-01-12T22:06:42.534Z,94126.88
2023-01-12T22:09:09.260Z,94121.81
2023-01-12T22:11:35.946Z,94128.84
2023-01-12T22:14:02.593Z,94125.78
2023-01-12T22:16:29.357Z,94123.06
2023-01-12T22:18:56.153Z,94133.56
2023-01-12T22:21:23.009Z,94119.97
2023-01-12T22:23:49.801Z,94118.78
2023-01-12T22:26:17.725Z,94130.44
2023-01-12T22:28:47.631Z,94120.34
2023-01-12T22:31:17.280Z,94140.19
2023-01-12T22:33:46.433Z,94119.56
2023-01-12T22:36:13.576Z,94121.53
2023-01-12T22:38:40.213Z,94127.78
2023-01-12T22:41:08.112Z,94127.00
2023-01-12T22:43:40.647Z,94128.19
2023-01-12T22:46:15.902Z,94137.09
2023-01-12T22:48:42.667Z,94134.34
2023-01-12T22:51:09.787Z,94124.25
2023-01-12T22:53:36.641Z,94115.28
2023-01-12T22:56:04.388Z,94112.53
2023-01-12T22:58:31.457Z,94103.59
2023-01-12T23:01:09.366Z,94103.97
2023-01-12T23:03:37.464Z,94125.75
2023-01-12T23:06:05.517Z,94108.66
2023-01-12T23:08:32.390Z,94106.75
2023-01-12T23:11:07.168Z,94091.56
2023-01-12T23:13:34.950Z,94086.91
2023-01-12T23:16:04.948Z,94074.44
2023-01-12T23:18:33.221Z,94089.22
2023-01-12T23:21:25.103Z,94080.63
2023-01-12T23:24:00.942Z,94086.09
2023-01-12T23:26:32.729Z,94070.91
2023-01-12T23:29:01.224Z,94066.25
2023-01-12T23:31:30.496Z,94070.94
2023-01-12T23:33:57.522Z,94075.19
2023-01-12T23:36:26.803Z,94070.53
2023-01-12T23:38:54.741Z,94060.84
2023-01-12T23:41:23.532Z,94049.56
2023-01-12T23:43:52.187Z,94057.34
2023-01-12T23:46:23.507Z,94056.19
2023-01-12T23:48:52.667Z,94051.16
2023-01-12T23:51:19.727Z,94033.25
2023-01-12T23:53:46.900Z,94022.72
2023-01-12T23:56:22.624Z,94019.25
2023-01-12T23:58:49.501Z,94020.34
